createdAt,value
2022-10-15T00:00:52.670Z,89.36
2022-10-15T00:01:52.721Z,89.72
2022-10-15T00:02:52.656Z,89.56
2022-10-15T00:03:52.671Z,89.76
2022-10-15T00:04:52.649Z,89.92
2022-10-15T00:05:52.642Z,90.03
2022-10-15T00:06:52.633Z,90.07
2022-10-15T00:07:52.627Z,90.17
2022-10-15T00:08:52.620Z,90.27
2022-10-15T00:09:52.615Z,90.17
2022-10-15T00:10:52.607Z,90.58
2022-10-15T00:11:52.602Z,91.29
2022-10-15T00:12:52.643Z,90.88
2022-10-15T00:13:52.593Z,91.29
2022-10-15T00:14:52.587Z,90.99
2022-10-15T00:15:52.582Z,91.19
2022-10-15T00:16:52.591Z,91.29
2022-10-15T00:17:52.570Z,91.80
2022-10-15T00:18:52.558Z,91.80
2022-10-15T00:19:52.556Z,91.69
2022-10-15T00:20:52.550Z,91.69
2022-10-15T00:21:52.594Z,92.00
2022-10-15T00:22:52.538Z,91.69
2022-10-15T00:23:52.537Z,92.71
2022-10-15T00:24:52.523Z,92.41
2022-10-15T00:25:52.521Z,92.82
2022-10-15T00:26:52.517Z,92.91
2022-10-15T00:27:52.507Z,93.22
2022-10-15T00:28:52.547Z,93.52
2022-10-15T00:29:52.501Z,93.93
2022-10-15T00:30:52.525Z,93.63
2022-10-15T00:31:52.497Z,94.13
2022-10-15T00:32:52.477Z,94.04
2022-10-15T00:33:52.485Z,94.54
2022-10-15T00:34:52.469Z,94.38
2022-10-15T00:35:52.463Z,94.59
2022-10-15T00:36:52.452Z,94.89
2022-10-15T00:37:52.477Z,94.64
2022-10-15T00:38:52.440Z,95.20
2022-10-15T00:39:52.495Z,95.40
2022-10-15T00:40:52.429Z,95.09
2022-10-15T00:41:52.427Z,95.70
2022-10-15T00:42:52.416Z,95.05
2022-10-15T00:43:52.418Z,95.76
2022-10-15T00:44:52.407Z,95.20
2022-10-15T00:45:52.399Z,95.30
2022-10-15T00:46:52.391Z,95.50
2022-10-15T00:47:52.389Z,95.30
2022-10-15T00:48:52.544Z,95.30
2022-10-15T00:49:52.383Z,96.31
2022-10-15T00:50:52.367Z,96.22
2022-10-15T00:51:52.363Z,96.31
2022-10-15T00:52:52.359Z,96.11
2022-10-15T00:53:52.349Z,96.11
2022-10-15T00:54:52.343Z,96.07
2022-10-15T00:55:52.337Z,96.11
2022-10-15T00:56:52.333Z,96.52
2022-10-15T00:57:52.329Z,96.42
2022-10-15T00:58:52.320Z,96.83
2022-10-15T00:59:52.313Z,96.72
2022-10-15T01:00:52.348Z,96.83
2022-10-15T01:01:52.320Z,97.53
2022-10-15T01:02:52.295Z,97.53
2022-10-15T01:03:52.292Z,97.44
2022-10-15T01:04:52.284Z,97.33
2022-10-15T01:05:52.277Z,97.23
2022-10-15T01:06:52.276Z,97.53
2022-10-15T01:07:52.270Z,97.33
2022-10-15T01:08:52.264Z,97.64
2022-10-15T01:09:52.254Z,97.94
2022-10-15T01:10:52.248Z,97.74
2022-10-15T01:11:52.245Z,97.74
2022-10-15T01:12:52.244Z,98.05
2022-10-15T01:13:52.228Z,97.84
2022-10-15T01:14:52.223Z,97.84
2022-10-15T01:15:52.216Z,97.84
2022-10-15T01:16:52.218Z,97.94
2022-10-15T01:17:52.206Z,97.94
2022-10-15T01:18:52.209Z,97.74
2022-10-15T01:19:52.193Z,97.84
2022-10-15T01:20:52.191Z,98.25
2022-10-15T01:21:52.178Z,97.94
2022-10-15T01:22:52.177Z,97.84
2022-10-15T01:23:52.170Z,97.84
2022-10-15T01:24:52.168Z,97.94
2022-10-15T01:25:52.161Z,97.53
2022-10-15T01:26:52.158Z,98.05
2022-10-15T01:27:52.150Z,98.25
2022-10-15T01:28:52.202Z,97.94
2022-10-15T01:29:52.131Z,98.05
2022-10-15T01:30:52.128Z,97.94
2022-10-15T01:31:52.124Z,97.84
2022-10-15T01:32:52.121Z,98.14
2022-10-15T01:33:52.111Z,98.25
2022-10-15T01:34:52.107Z,98.14
2022-10-15T01:35:52.097Z,97.94
2022-10-15T01:36:52.093Z,98.14
2022-10-15T01:37:52.083Z,98.14
2022-10-15T01:38:52.080Z,98.14
2022-10-15T01:39:52.071Z,98.25
2022-10-15T01:40:52.078Z,98.45
2022-10-15T01:41:52.058Z,98.45
2022-10-15T01:42:52.055Z,98.35
2022-10-15T01:43:52.048Z,98.45
2022-10-15T01:44:52.049Z,98.45
2022-10-15T01:45:52.033Z,98.75
2022-10-15T01:46:52.035Z,98.45
2022-10-15T01:47:52.046Z,98.66
2022-10-15T01:48:52.019Z,98.45
2022-10-15T01:49:52.012Z,98.66
2022-10-15T01:50:52.006Z,98.86
2022-10-15T01:51:51.999Z,98.55
2022-10-15T01:52:51.999Z,98.45
2022-10-15T01:53:51.989Z,98.35
2022-10-15T01:54:51.981Z,98.45
2022-10-15T01:55:51.976Z,98.25
2022-10-15T01:56:51.973Z,98.55
2022-10-15T01:57:51.962Z,98.66
2022-10-15T01:58:51.959Z,99.16
2022-10-15T01:59:51.950Z,98.96
2022-10-15T02:00:51.994Z,99.06
2022-10-15T02:01:53.199Z,99.16
2022-10-15T02:02:51.933Z,98.66
2022-10-15T02:03:51.930Z,99.16
2022-10-15T02:04:51.925Z,99.16
2022-10-15T02:05:51.920Z,98.86
2022-10-15T02:06:51.910Z,99.06
2022-10-15T02:07:51.903Z,98.96
2022-10-15T02:08:51.895Z,98.75
2022-10-15T02:09:51.895Z,99.27
2022-10-15T02:10:51.881Z,99.27
2022-10-15T02:11:51.886Z,99.27
2022-10-15T02:12:51.873Z,99.27
2022-10-15T02:13:51.873Z,98.86
2022-10-15T02:14:51.859Z,98.96
2022-10-15T02:15:51.854Z,98.86
2022-10-15T02:16:51.844Z,98.75
2022-10-15T02:17:51.846Z,98.96
2022-10-15T02:18:51.834Z,99.27
2022-10-15T02:19:51.917Z,99.11
2022-10-15T02:20:51.824Z,99.27
2022-10-15T02:21:51.823Z,99.37
2022-10-15T02:22:51.811Z,99.16
2022-10-15T02:23:51.812Z,99.31
2022-10-15T02:24:55.384Z,99.52
2022-10-15T02:25:51.794Z,99.27
2022-10-15T02:26:51.784Z,99.57
2022-10-15T02:27:51.790Z,99.37
2022-10-15T02:28:51.839Z,99.37
2022-10-15T02:29:51.770Z,99.37
2022-10-15T02:30:51.766Z,99.37
2022-10-15T02:31:51.764Z,99.67
2022-10-15T02:32:51.749Z,99.27
2022-10-15T02:33:51.746Z,99.47
2022-10-15T02:34:51.741Z,99.67
2022-10-15T02:35:51.743Z,99.47
2022-10-15T02:36:51.721Z,99.57
2022-10-15T02:37:51.722Z,99.57
2022-10-15T02:38:51.715Z,99.57
2022-10-15T02:39:51.705Z,99.47
2022-10-15T02:40:51.714Z,99.47
2022-10-15T02:41:51.700Z,99.47
2022-10-15T02:42:51.691Z,99.47
2022-10-15T02:43:51.685Z,99.88
2022-10-15T02:44:51.678Z,99.06
2022-10-15T02:45:51.672Z,99.47
2022-10-15T02:46:51.666Z,99.88
2022-10-15T02:47:51.657Z,99.88
2022-10-15T02:48:51.653Z,99.27
2022-10-15T02:49:51.662Z,99.67
2022-10-15T02:50:51.652Z,99.57
2022-10-15T02:51:51.634Z,99.57
2022-10-15T02:52:51.635Z,98.96
2022-10-15T02:53:51.626Z,99.98
2022-10-15T02:54:51.620Z,99.77
2022-10-15T02:55:51.611Z,99.67
2022-10-15T02:56:51.605Z,99.16
2022-10-15T02:57:51.602Z,99.57
2022-10-15T02:58:51.597Z,99.27
2022-10-15T02:59:51.589Z,99.67
2022-10-15T03:00:51.621Z,99.88
2022-10-15T03:01:51.574Z,99.47
2022-10-15T03:02:51.573Z,99.37
2022-10-15T03:03:51.561Z,99.06
2022-10-15T03:04:51.555Z,99.88
2022-10-15T03:05:51.549Z,99.47
2022-10-15T03:06:51.553Z,99.67
2022-10-15T03:07:51.540Z,99.57
2022-10-15T03:08:51.543Z,99.77
2022-10-15T03:09:51.528Z,99.37
2022-10-15T03:10:51.525Z,99.47
2022-10-15T03:11:51.515Z,99.37
2022-10-15T03:12:51.509Z,99.67
2022-10-15T03:13:51.499Z,99.57
2022-10-15T03:14:51.495Z,99.88
2022-10-15T03:15:51.495Z,99.88
2022-10-15T03:16:51.482Z,99.27
2022-10-15T03:17:51.478Z,99.99
2022-10-15T03:18:51.482Z,99.99
2022-10-15T03:19:51.474Z,99.93
2022-10-15T03:20:51.460Z,99.37
2022-10-15T03:21:51.456Z,99.77
2022-10-15T03:22:51.447Z,99.98
2022-10-15T03:23:51.443Z,99.16
2022-10-15T03:24:51.438Z,99.27
2022-10-15T03:25:51.430Z,99.67
2022-10-15T03:26:51.431Z,99.57
2022-10-15T03:27:51.417Z,99.77
2022-10-15T03:28:51.495Z,99.37
2022-10-15T03:29:51.405Z,99.67
2022-10-15T03:30:51.402Z,99.67
2022-10-15T03:31:51.400Z,99.47
2022-10-15T03:32:51.391Z,99.37
2022-10-15T03:33:51.383Z,99.27
2022-10-15T03:34:51.378Z,99.57
2022-10-15T03:35:51.371Z,99.98
2022-10-15T03:36:51.368Z,99.47
2022-10-15T03:37:51.367Z,99.98
2022-10-15T03:38:51.354Z,99.77
2022-10-15T03:39:51.345Z,99.98
2022-10-15T03:40:51.342Z,99.98
2022-10-15T03:41:51.337Z,99.77
2022-10-15T03:42:51.325Z,99.77
2022-10-15T03:43:51.327Z,99.88
2022-10-15T03:44:51.320Z,99.88
2022-10-15T03:45:51.313Z,99.98
2022-10-15T03:46:51.305Z,99.99
2022-10-15T03:47:51.302Z,99.88
2022-10-15T03:48:51.296Z,99.98
2022-10-15T03:49:51.290Z,99.93
2022-10-15T03:50:51.303Z,99.99
2022-10-15T03:51:51.279Z,99.99
2022-10-15T03:52:51.270Z,99.99
2022-10-15T03:53:51.268Z,99.99
2022-10-15T03:54:51.256Z,99.99
2022-10-15T03:55:51.259Z,99.83
2022-10-15T03:56:51.247Z,99.98
2022-10-15T03:57:51.243Z,99.88
2022-10-15T03:58:51.229Z,99.77
2022-10-15T03:59:51.228Z,99.22
2022-10-15T04:00:51.253Z,99.37
2022-10-15T04:01:51.220Z,99.27
2022-10-15T04:02:51.210Z,99.73
2022-10-15T04:03:51.210Z,99.88
2022-10-15T04:04:51.195Z,99.93
2022-10-15T04:05:53.852Z,99.52
2022-10-15T04:06:51.181Z,99.73
2022-10-15T04:07:51.179Z,99.88
2022-10-15T04:09:51.173Z,99.77
2022-10-15T04:10:51.160Z,99.32
2022-10-15T04:11:51.153Z,99.67
2022-10-15T04:12:51.149Z,99.37
2022-10-15T04:13:51.154Z,99.42
2022-10-15T04:14:51.133Z,99.88
2022-10-15T04:15:51.130Z,99.77
2022-10-15T04:16:51.123Z,99.67
2022-10-15T04:17:54.193Z,99.67
2022-10-15T04:18:51.112Z,99.67
2022-10-15T04:19:51.108Z,99.88
2022-10-15T04:20:51.100Z,99.83
2022-10-15T04:21:51.103Z,99.47
2022-10-15T04:22:51.087Z,99.42
2022-10-15T04:23:51.086Z,99.57
2022-10-15T04:24:51.073Z,99.47
2022-10-15T04:25:51.071Z,99.98
2022-10-15T04:26:51.065Z,99.47
2022-10-15T04:27:51.059Z,99.32
2022-10-15T04:28:51.095Z,99.57
2022-10-15T04:29:51.049Z,99.73
2022-10-15T04:30:51.039Z,99.93
2022-10-15T04:31:51.035Z,99.88
2022-10-15T04:32:51.032Z,99.99
2022-10-15T04:33:51.022Z,99.47
2022-10-15T04:34:51.018Z,99.63
2022-10-15T04:35:51.010Z,99.63
2022-10-15T04:36:51.006Z,99.22
2022-10-15T04:37:51.007Z,99.63
2022-10-15T04:38:50.992Z,99.93
2022-10-15T04:39:50.986Z,99.67
2022-10-15T04:40:50.982Z,99.63
2022-10-15T04:41:50.975Z,99.52
2022-10-15T04:42:50.972Z,99.47
2022-10-15T04:43:50.962Z,99.32
2022-10-15T04:44:50.954Z,99.83
2022-10-15T04:45:50.956Z,99.83
2022-10-15T04:46:50.944Z,99.73
2022-10-15T04:47:50.940Z,99.73
2022-10-15T04:48:50.934Z,99.63
2022-10-15T04:49:50.926Z,99.63
2022-10-15T04:50:50.926Z,99.42
2022-10-15T04:51:50.915Z,99.73
2022-10-15T04:52:50.909Z,99.32
2022-10-15T04:53:50.900Z,99.63
2022-10-15T04:54:50.898Z,99.63
2022-10-15T04:55:50.888Z,99.83
2022-10-15T04:56:58.063Z,99.83
2022-10-15T04:58:54.888Z,99.22
2022-10-15T04:59:57.658Z,99.63
2022-10-15T05:01:48.021Z,99.77
2022-10-15T05:02:47.959Z,99.57
2022-10-15T05:04:51.949Z,99.77
2022-10-15T05:05:51.937Z,99.88
2022-10-15T05:07:55.934Z,99.83
2022-10-15T05:08:55.914Z,99.52
2022-10-15T05:10:59.910Z,99.42
2022-10-15T05:11:59.904Z,99.83
2022-10-15T05:14:03.880Z,99.73
2022-10-15T05:15:03.879Z,99.63
2022-10-15T05:17:07.880Z,99.83
2022-10-15T05:18:07.864Z,99.83
2022-10-15T05:20:00.976Z,99.67
2022-10-15T05:21:00.960Z,99.37
2022-10-15T05:23:04.957Z,99.27
2022-10-15T05:24:04.946Z,99.37
2022-10-15T05:25:57.878Z,99.41
2022-10-15T05:26:57.852Z,99.27
2022-10-15T05:29:01.890Z,99.41
2022-10-15T05:30:01.836Z,99.41
2022-10-15T05:31:54.941Z,99.62
2022-10-15T05:32:54.920Z,99.72
2022-10-15T05:34:48.026Z,99.82
2022-10-15T05:35:48.043Z,99.52
2022-10-15T05:37:52.011Z,99.92
2022-10-15T05:38:51.993Z,99.99
2022-10-15T05:40:55.976Z,99.41
2022-10-15T05:41:55.963Z,99.99
2022-10-15T05:43:49.072Z,99.97
2022-10-15T05:44:49.059Z,99.87
2022-10-15T05:46:53.064Z,99.99
2022-10-15T05:47:53.049Z,99.99
2022-10-15T05:49:57.046Z,99.99
2022-10-15T05:50:57.033Z,99.99
2022-10-15T05:53:01.020Z,99.99
2022-10-15T05:54:01.003Z,99.99
2022-10-15T05:55:53.918Z,99.99
2022-10-15T05:56:53.901Z,99.99
2022-10-15T05:58:57.916Z,99.99
2022-10-15T05:59:57.894Z,99.99
2022-10-15T06:01:51.077Z,99.99
2022-10-15T06:02:51.033Z,99.99
2022-10-15T06:04:54.970Z,99.99
2022-10-15T06:05:54.958Z,99.99
2022-10-15T06:07:58.947Z,99.99
2022-10-15T06:08:58.925Z,99.99
2022-10-15T06:11:06.701Z,99.99
2022-10-15T06:12:02.893Z,99.99
2022-10-15T06:14:06.889Z,99.99
2022-10-15T06:15:06.881Z,99.99
2022-10-15T06:16:59.984Z,99.99
2022-10-15T06:17:59.970Z,99.99
2022-10-15T06:20:03.962Z,99.99
2022-10-15T06:21:03.941Z,99.99
2022-10-15T06:23:07.927Z,99.99
2022-10-15T06:24:10.004Z,99.99
2022-10-15T06:26:00.864Z,99.99
2022-10-15T06:27:00.844Z,99.99
2022-10-15T06:28:53.938Z,99.99
2022-10-15T06:29:53.797Z,99.99
2022-10-15T06:31:57.811Z,99.99
2022-10-15T06:32:57.838Z,99.99
2022-10-15T06:35:12.878Z,99.99
2022-10-15T06:36:12.858Z,99.99
2022-10-15T06:38:16.849Z,99.99
2022-10-15T06:39:16.837Z,99.99
2022-10-15T06:41:09.798Z,99.99
2022-10-15T06:42:09.777Z,99.99
2022-10-15T06:44:02.889Z,99.99
2022-10-15T06:45:02.878Z,99.99
2022-10-15T06:47:06.863Z,99.99
2022-10-15T06:48:06.861Z,99.99
2022-10-15T06:50:10.839Z,99.99
2022-10-15T06:51:10.821Z,99.99
2022-10-15T06:53:14.843Z,99.83
2022-10-15T06:54:14.831Z,99.99
2022-10-15T06:56:07.773Z,99.11
2022-10-15T06:57:07.756Z,99.93
2022-10-15T06:59:11.760Z,99.52
2022-10-15T07:00:11.748Z,99.22
2022-10-15T07:02:04.685Z,99.17
2022-10-15T07:03:04.677Z,99.07
2022-10-15T07:05:08.672Z,99.07
2022-10-15T07:06:08.642Z,99.07
2022-10-15T07:08:16.864Z,97.71
2022-10-15T07:09:12.615Z,98.11
2022-10-15T07:11:05.564Z,97.60
2022-10-15T07:12:05.552Z,97.91
2022-10-15T07:13:58.733Z,97.45
2022-10-15T07:14:58.706Z,97.45
2022-10-15T07:17:02.702Z,97.25
2022-10-15T07:18:02.691Z,96.84
2022-10-15T07:19:02.682Z,97.25
2022-10-15T07:20:02.677Z,96.23
2022-10-15T07:21:02.695Z,96.23
2022-10-15T07:22:02.668Z,96.50
2022-10-15T07:23:02.661Z,96.30
2022-10-15T07:24:02.656Z,96.30
2022-10-15T07:25:02.650Z,95.58
2022-10-15T07:26:02.647Z,96.09
2022-10-15T07:27:08.059Z,96.19
2022-10-15T07:28:02.637Z,95.28
2022-10-15T07:29:02.669Z,95.18
2022-10-15T07:30:02.623Z,95.28
2022-10-15T07:31:02.617Z,95.89
2022-10-15T07:32:02.615Z,95.79
2022-10-15T07:33:02.606Z,95.68
2022-10-15T07:34:02.599Z,95.99
2022-10-15T07:35:02.596Z,95.99
2022-10-15T07:36:02.591Z,96.19
2022-10-15T07:37:02.587Z,95.79
2022-10-15T07:38:02.580Z,95.74
2022-10-15T07:39:02.576Z,95.74
2022-10-15T07:40:02.570Z,94.93
2022-10-15T07:41:02.564Z,95.34
2022-10-15T07:42:02.613Z,95.23
2022-10-15T07:43:02.553Z,94.93
2022-10-15T07:44:02.547Z,94.78
2022-10-15T07:45:02.539Z,94.78
2022-10-15T07:46:02.539Z,95.29
2022-10-15T07:47:02.530Z,94.93
2022-10-15T07:48:02.529Z,94.68
2022-10-15T07:49:02.526Z,94.98
2022-10-15T07:50:02.523Z,94.98
2022-10-15T07:51:02.551Z,94.48
2022-10-15T07:52:02.534Z,94.58
2022-10-15T07:53:02.501Z,93.97
2022-10-15T07:54:02.498Z,94.43
2022-10-15T07:55:02.494Z,94.03
2022-10-15T07:56:02.502Z,94.13
2022-10-15T07:57:02.484Z,93.87
2022-10-15T07:58:02.477Z,93.83
2022-10-15T07:59:02.472Z,93.73
2022-10-15T08:00:02.468Z,92.82
2022-10-15T08:01:02.466Z,93.12
2022-10-15T08:02:02.463Z,92.57
2022-10-15T08:03:02.453Z,92.67
2022-10-15T08:04:02.448Z,91.75
2022-10-15T08:05:02.442Z,92.16
2022-10-15T08:06:02.436Z,92.26
2022-10-15T08:07:03.265Z,92.26
2022-10-15T08:08:02.428Z,92.26
2022-10-15T08:09:02.422Z,92.32
2022-10-15T08:10:02.417Z,92.22
2022-10-15T08:11:02.415Z,91.86
2022-10-15T08:12:02.411Z,91.71
2022-10-15T08:13:02.400Z,92.02
2022-10-15T08:14:02.399Z,91.00
2022-10-15T08:15:02.394Z,90.91
2022-10-15T08:16:02.394Z,90.91
2022-10-15T08:17:02.384Z,90.76
2022-10-15T08:18:02.380Z,90.86
2022-10-15T08:19:02.378Z,90.66
2022-10-15T08:20:02.379Z,90.76
2022-10-15T08:21:02.367Z,90.96
2022-10-15T08:22:02.362Z,90.86
2022-10-15T08:23:02.361Z,90.66
2022-10-15T08:24:02.352Z,89.95
2022-10-15T08:25:02.346Z,90.05
2022-10-15T08:26:02.344Z,90.01
2022-10-15T08:27:02.338Z,90.11
2022-10-15T08:28:02.397Z,90.01
2022-10-15T08:29:02.385Z,89.70
2022-10-15T08:30:02.327Z,89.66
2022-10-15T08:31:05.271Z,88.81
2022-10-15T08:32:02.317Z,88.55
2022-10-15T08:33:02.313Z,88.61
2022-10-15T08:34:02.305Z,88.51
2022-10-15T08:35:02.301Z,87.70
2022-10-15T08:36:02.302Z,87.90
2022-10-15T08:37:02.312Z,87.76
2022-10-15T08:38:02.288Z,87.30
2022-10-15T08:39:02.285Z,86.45
2022-10-15T08:40:02.282Z,86.85
2022-10-15T08:41:02.275Z,86.65
2022-10-15T08:42:02.272Z,86.85
2022-10-15T08:43:02.269Z,85.74
2022-10-15T08:44:02.265Z,85.24
2022-10-15T08:45:02.259Z,85.90
2022-10-15T08:46:02.257Z,86.30
2022-10-15T08:47:02.250Z,85.30
2022-10-15T08:48:02.251Z,85.66
2022-10-15T08:49:02.243Z,85.66
2022-10-15T08:50:02.260Z,85.36
2022-10-15T08:51:02.235Z,85.11
2022-10-15T08:52:02.235Z,84.61
2022-10-15T08:53:02.226Z,84.01
2022-10-15T08:54:02.225Z,83.60
2022-10-15T08:55:02.219Z,83.30
2022-10-15T08:56:02.217Z,83.56
2022-10-15T08:57:02.212Z,83.46
2022-10-15T08:58:02.207Z,83.16
2022-10-15T08:59:02.202Z,82.86
2022-10-15T09:00:02.201Z,82.56
2022-10-15T09:01:02.198Z,82.65
2022-10-15T09:02:02.192Z,81.65
2022-10-15T09:03:02.227Z,82.05
2022-10-15T09:04:02.187Z,81.35
2022-10-15T09:05:02.180Z,81.59
2022-10-15T09:06:02.180Z,82.70
2022-10-15T09:07:02.174Z,82.90
2022-10-15T09:08:02.170Z,83.00
2022-10-15T09:09:02.169Z,83.30
2022-10-15T09:10:02.161Z,82.90
2022-10-15T09:11:02.164Z,82.70
2022-10-15T09:12:02.156Z,82.90
2022-10-15T09:13:02.157Z,83.30
2022-10-15T09:14:02.149Z,83.30
2022-10-15T09:15:02.145Z,83.56
2022-10-15T09:16:02.143Z,83.26
2022-10-15T09:17:02.142Z,82.05
2022-10-15T09:18:02.143Z,81.95
2022-10-15T09:19:02.135Z,81.61
2022-10-15T09:20:02.130Z,80.84
2022-10-15T09:21:02.124Z,82.01
2022-10-15T09:22:02.121Z,82.21
2022-10-15T09:23:02.115Z,80.10
2022-10-15T09:24:02.120Z,81.21
2022-10-15T09:25:02.113Z,81.41
2022-10-15T09:26:02.106Z,81.21
2022-10-15T09:27:02.104Z,80.97
2022-10-15T09:28:02.102Z,81.07
2022-10-15T09:29:02.178Z,81.67
2022-10-15T09:30:02.099Z,81.17
2022-10-15T09:31:02.095Z,80.57
2022-10-15T09:32:02.091Z,79.92
2022-10-15T09:33:02.096Z,80.12
2022-10-15T09:34:02.082Z,79.32
2022-10-15T09:35:02.107Z,79.66
2022-10-15T09:36:02.077Z,79.72
2022-10-15T09:37:02.156Z,79.52
2022-10-15T09:38:05.688Z,79.32
2022-10-15T09:39:02.075Z,79.02
2022-10-15T09:40:02.074Z,78.41
2022-10-15T09:41:02.124Z,78.81
2022-10-15T09:42:02.061Z,78.71
2022-10-15T09:43:02.057Z,79.48
2022-10-15T09:44:03.687Z,79.38
2022-10-15T09:45:02.052Z,79.79
2022-10-15T09:46:02.044Z,79.32
2022-10-15T09:47:02.043Z,78.88
2022-10-15T09:48:02.041Z,78.58
2022-10-15T09:49:02.037Z,77.67
2022-10-15T09:50:02.047Z,77.47
2022-10-15T09:51:02.031Z,77.67
2022-10-15T09:52:02.028Z,77.77
2022-10-15T09:53:02.024Z,78.88
2022-10-15T09:54:02.022Z,78.88
2022-10-15T09:55:02.019Z,77.27
2022-10-15T09:56:02.016Z,77.07
2022-10-15T09:57:02.015Z,78.31
2022-10-15T09:58:02.011Z,78.17
2022-10-15T09:59:04.685Z,77.97
2022-10-15T10:00:02.071Z,77.27
2022-10-15T10:01:02.010Z,77.31
2022-10-15T10:02:02.057Z,78.17
2022-10-15T10:03:01.996Z,77.77
2022-10-15T10:04:01.996Z,78.67
2022-10-15T10:05:04.266Z,78.01
2022-10-15T10:06:01.991Z,78.38
2022-10-15T10:07:01.986Z,78.88
2022-10-15T10:08:01.984Z,78.27
2022-10-15T10:09:01.980Z,77.27
2022-10-15T10:10:01.979Z,78.27
2022-10-15T10:11:01.971Z,76.93
2022-10-15T10:12:01.975Z,77.63
2022-10-15T10:13:01.967Z,77.63
2022-10-15T10:14:01.971Z,77.43
2022-10-15T10:15:02.045Z,77.23
2022-10-15T10:16:01.966Z,76.83
2022-10-15T10:17:01.962Z,76.46
2022-10-15T10:18:01.959Z,77.47
2022-10-15T10:19:01.954Z,77.77
2022-10-15T10:20:01.959Z,77.61
2022-10-15T10:21:01.955Z,79.02
2022-10-15T10:22:01.944Z,78.61
2022-10-15T10:23:01.943Z,79.08
2022-10-15T10:24:01.941Z,78.67
2022-10-15T10:25:01.936Z,79.02
2022-10-15T10:26:01.934Z,78.61
2022-10-15T10:27:01.992Z,78.71
2022-10-15T10:28:01.930Z,79.22
2022-10-15T10:29:09.832Z,78.78
2022-10-15T10:30:01.929Z,78.47
2022-10-15T10:31:01.930Z,77.67
2022-10-15T10:32:01.920Z,77.43
2022-10-15T10:33:01.914Z,77.13
2022-10-15T10:34:01.918Z,77.23
2022-10-15T10:35:01.910Z,76.93
2022-10-15T10:36:01.971Z,77.73
2022-10-15T10:37:01.906Z,77.03
2022-10-15T10:38:01.902Z,77.00
2022-10-15T10:39:01.899Z,77.39
2022-10-15T10:40:01.902Z,76.89
2022-10-15T10:41:01.898Z,76.89
2022-10-15T10:42:01.889Z,76.39
2022-10-15T10:43:01.889Z,75.65
2022-10-15T10:44:01.887Z,75.55
2022-10-15T10:45:01.886Z,75.55
2022-10-15T10:46:01.886Z,75.95
2022-10-15T10:47:01.921Z,76.15
2022-10-15T10:48:01.878Z,75.82
2022-10-15T10:49:01.896Z,75.15
2022-10-15T10:50:01.874Z,75.75
2022-10-15T10:51:01.873Z,75.51
2022-10-15T10:52:01.866Z,75.25
2022-10-15T10:53:01.865Z,74.24
2022-10-15T10:54:01.871Z,74.95
2022-10-15T10:55:01.877Z,75.55
2022-10-15T10:56:01.857Z,74.24
2022-10-15T10:57:09.021Z,74.95
2022-10-15T10:58:55.288Z,76.15
2022-10-15T10:59:55.276Z,75.75
2022-10-15T11:00:55.346Z,74.95
2022-10-15T11:01:55.269Z,74.85
2022-10-15T11:02:55.273Z,74.44
2022-10-15T11:03:55.324Z,73.91
2022-10-15T11:04:55.263Z,74.55
2022-10-15T11:05:55.260Z,74.04
2022-10-15T11:06:55.262Z,74.51
2022-10-15T11:07:55.257Z,74.11
2022-10-15T11:08:55.257Z,73.61
2022-10-15T11:09:56.228Z,74.01
2022-10-15T11:10:55.248Z,73.81
2022-10-15T11:11:55.248Z,74.07
2022-10-15T11:12:55.247Z,73.57
2022-10-15T11:13:55.262Z,72.87
2022-10-15T11:14:55.248Z,73.57
2022-10-15T11:15:55.239Z,73.37
2022-10-15T11:16:55.238Z,73.00
2022-10-15T11:17:55.237Z,73.41
2022-10-15T11:18:55.234Z,73.81
2022-10-15T11:20:20.412Z,74.31
2022-10-15T11:20:59.821Z,74.51
2022-10-15T11:21:55.229Z,74.41
2022-10-15T11:22:55.226Z,73.91
2022-10-15T11:23:55.223Z,73.71
2022-10-15T11:25:06.761Z,74.41
2022-10-15T11:25:55.221Z,73.97
2022-10-15T11:27:22.440Z,73.91
2022-10-15T11:27:55.216Z,73.57
2022-10-15T11:28:55.287Z,73.37
2022-10-15T11:29:55.214Z,73.61
2022-10-15T11:30:55.210Z,73.67
2022-10-15T11:32:02.117Z,73.27
2022-10-15T11:33:06.892Z,73.57
2022-10-15T11:33:55.210Z,73.07
2022-10-15T11:34:55.206Z,72.87
2022-10-15T11:35:55.217Z,73.47
2022-10-15T11:36:55.203Z,73.27
2022-10-15T11:37:55.199Z,73.27
2022-10-15T11:38:55.194Z,73.54
2022-10-15T11:39:55.197Z,73.87
2022-10-15T11:40:55.194Z,72.33
2022-10-15T11:41:55.191Z,71.93
2022-10-15T11:42:55.187Z,73.03
2022-10-15T11:43:55.184Z,73.24
2022-10-15T11:44:55.183Z,71.80
2022-10-15T11:45:55.181Z,71.03
2022-10-15T11:46:55.181Z,71.83
2022-10-15T11:47:55.178Z,72.74
2022-10-15T11:48:55.183Z,72.97
2022-10-15T11:49:55.174Z,73.57
2022-10-15T11:50:55.176Z,72.87
2022-10-15T11:51:55.175Z,73.27
2022-10-15T11:52:55.168Z,73.07
2022-10-15T11:53:55.168Z,73.21
2022-10-15T11:54:55.162Z,73.50
2022-10-15T11:55:55.160Z,73.44
2022-10-15T11:56:55.162Z,73.74
2022-10-15T11:57:55.156Z,74.08
2022-10-15T11:58:55.166Z,74.15
2022-10-15T11:59:55.154Z,73.74
2022-10-15T12:00:55.160Z,74.35
2022-10-15T12:01:55.151Z,74.44
2022-10-15T12:02:55.190Z,73.94
2022-10-15T12:03:55.188Z,74.04
2022-10-15T12:04:55.142Z,74.85
2022-10-15T12:05:55.138Z,73.94
2022-10-15T12:06:55.138Z,74.95
2022-10-15T12:07:55.246Z,74.04
2022-10-15T12:08:55.133Z,74.35
2022-10-15T12:09:55.130Z,75.25
2022-10-15T12:10:55.131Z,74.85
2022-10-15T12:11:55.125Z,74.35
2022-10-15T12:12:55.126Z,73.81
2022-10-15T12:13:55.122Z,74.31
2022-10-15T12:14:55.129Z,74.18
2022-10-15T12:15:55.117Z,73.91
2022-10-15T12:16:55.117Z,73.47
2022-10-15T12:17:55.115Z,73.07
2022-10-15T12:18:55.111Z,72.77
2022-10-15T12:19:55.109Z,73.13
2022-10-15T12:20:55.104Z,72.03
2022-10-15T12:21:55.111Z,72.63
2022-10-15T12:22:55.108Z,72.24
2022-10-15T12:23:55.104Z,72.97
2022-10-15T12:24:55.100Z,72.77
2022-10-15T12:25:55.097Z,73.27
2022-10-15T12:26:55.093Z,73.54
2022-10-15T12:27:55.096Z,73.07
2022-10-15T12:28:56.574Z,73.07
2022-10-15T12:29:55.091Z,73.27
2022-10-15T12:30:55.084Z,73.27
2022-10-15T12:31:55.085Z,73.17
2022-10-15T12:32:55.083Z,73.27
2022-10-15T12:33:55.081Z,73.47
2022-10-15T12:34:55.078Z,73.47
2022-10-15T12:35:55.076Z,73.47
2022-10-15T12:36:55.077Z,72.97
2022-10-15T12:37:55.074Z,72.87
2022-10-15T12:38:55.072Z,73.57
2022-10-15T12:39:55.069Z,73.07
2022-10-15T12:40:55.068Z,73.07
2022-10-15T12:41:55.065Z,72.77
2022-10-15T12:42:55.064Z,73.27
2022-10-15T12:43:55.062Z,72.27
2022-10-15T12:44:55.063Z,73.07
2022-10-15T12:45:55.059Z,72.43
2022-10-15T12:46:55.057Z,73.03
2022-10-15T12:47:55.063Z,73.27
2022-10-15T12:48:55.055Z,73.57
2022-10-15T12:49:55.051Z,72.67
2022-10-15T12:50:55.060Z,73.57
2022-10-15T12:51:56.294Z,73.44
2022-10-15T12:52:55.053Z,73.17
2022-10-15T12:53:55.054Z,72.87
2022-10-15T12:54:58.944Z,73.21
2022-10-15T12:55:55.041Z,73.10
2022-10-15T12:56:55.040Z,73.74
2022-10-15T12:57:55.046Z,73.44
2022-10-15T12:58:55.031Z,74.04
2022-10-15T12:59:55.031Z,74.04
2022-10-15T13:00:55.079Z,74.04
2022-10-15T13:01:55.029Z,74.11
2022-10-15T13:02:55.035Z,73.34
2022-10-15T13:03:55.020Z,73.54
2022-10-15T13:04:55.025Z,73.84
2022-10-15T13:05:55.019Z,74.15
2022-10-15T13:06:55.023Z,73.44
2022-10-15T13:07:55.016Z,73.94
2022-10-15T13:08:55.013Z,73.34
2022-10-15T13:09:55.012Z,74.08
2022-10-15T13:10:55.014Z,74.28
2022-10-15T13:11:55.012Z,74.18
2022-10-15T13:12:55.009Z,73.88
2022-10-15T13:13:55.010Z,73.88
2022-10-15T13:14:55.001Z,74.58
2022-10-15T13:15:56.949Z,74.88
2022-10-15T13:16:54.998Z,75.29
2022-10-15T13:17:54.994Z,75.29
2022-10-15T13:18:54.994Z,75.09
2022-10-15T13:19:54.990Z,75.55
2022-10-15T13:20:55.030Z,75.35
2022-10-15T13:21:54.989Z,75.18
2022-10-15T13:23:01.922Z,75.35
2022-10-15T13:23:54.984Z,74.55
2022-10-15T13:24:55.045Z,74.15
2022-10-15T13:25:54.978Z,74.04
2022-10-15T13:26:54.977Z,73.44
2022-10-15T13:27:54.975Z,73.64
2022-10-15T13:28:55.054Z,73.74
2022-10-15T13:29:54.970Z,73.54
2022-10-15T13:30:54.965Z,73.61
2022-10-15T13:31:54.965Z,73.44
2022-10-15T13:32:54.964Z,73.54
2022-10-15T13:33:54.962Z,73.94
2022-10-15T13:34:54.959Z,73.00
2022-10-15T13:35:54.957Z,73.64
2022-10-15T13:36:54.954Z,73.44
2022-10-15T13:37:54.953Z,73.34
2022-10-15T13:38:54.952Z,73.50
2022-10-15T13:39:54.950Z,73.64
2022-10-15T13:40:54.944Z,73.34
2022-10-15T13:41:54.945Z,73.84